Brownsville, TX

10:39 PM CST en Diciembre 18, 2014 (GMT -0600)
Brownsville-South Padre I International | Change Station
CLOSE
Current Station
Aeropuerto
Location: Brownsville,
Altura: 20 ft
Estaciones meteorológicas cercanas

Alt 20 ft 25.91 °N, 97.42 °W | Updated 46 minutes ago

Nublado
Nublado
72 ° F
Sensación térmica 72 ° F
N
6
Viento Variable Viento desde SE

Hoy
Alta -- | Baja -- ° F
--% Posibilidad de precipitaciones
Ayer
Alta -- | Baja -- ° F
Precip. -- pul
7:11 AM 5:42 PM
Creciente menguante, 10% visible
Presión 30.01 pul
Visibilidad 9.0 Millas
Nubes Nublado 5000 ft
Punto de rocío 67 ° F
Humedad 84%
Precipitaciones 0.00 pul
Espesor de la nieve No disponible.
UV 0 de una escala de 12
Polen 9.80 de una escala de 12
Calidad del aire No disponible.
Flu Activity No disponible.
METAR KBRO 190353Z 14005KT 9SM OVC050 22/19 A3001 RMK AO2 SLP161 T02220194

More Conditions Fewer Conditions

Presión 30.01 pul
Visibilidad 9.0 Millas
Nubes Nublado 5000 ft
Punto de rocío 67 ° F
Humedad 84%
Precipitaciones 0.00 pul
Espesor de la nieve No disponible.
UV 0 de una escala de 12
Polen 9.80 de una escala de 12
Calidad del aire No disponible.
Flu Activity No disponible.
METAR KBRO 190353Z 14005KT 9SM OVC050 22/19 A3001 RMK AO2 SLP161 T02220194

More Conditions Fewer Conditions

10-Day Weather Forecast

Almanac

Astronomía

Dec. 18, 2014 Salida Puesta
Hora real
Crepúsculo civil
Crepúsculo náutico
Crepúsculo astronómico
Luna
Horas de luz
Horas de luz
Tomorrow will be .
, % of the Moon is Illuminated

Extremos de hoy

Máximos del estado Bajos del estado

Community

WunderPhotos

Upload Photos

1,778,963 ¡fotos cargadas!

WunderBlogs® & News

Nearby

Calidad del aire

  Calidad del aire Índice AQ Contaminante
Not available.

Grosos de nieve

Estación Profundido Altura

Actividad de terremotos

Ciudad Distance Mag. Tiempo y dato
Magnitud mínima muestra es 2,5.

Temperaturas de aguas costeras

Lugar Temperatura

Estaciones meteorológicas cercanas